sensor_id;sensor_type;location;lat;lon;timestamp;P1;durP1;ratioP1;P2;durP2;ratioP2
56116;SDS011;41989;45.356;20.392;2024-03-23T00:53:10;70.20;;;44.30;;
56116;SDS011;41989;45.356;20.392;2024-03-23T00:55:36;73.32;;;45.85;;
56116;SDS011;41989;45.356;20.392;2024-03-23T00:58:03;68.85;;;43.75;;
56116;SDS011;41989;45.356;20.392;2024-03-23T01:00:29;75.28;;;46.47;;
56116;SDS011;41989;45.356;20.392;2024-03-23T01:02:56;68.05;;;43.17;;
56116;SDS011;41989;45.356;20.392;2024-03-23T01:05:22;76.13;;;45.55;;
56116;SDS011;41989;45.356;20.392;2024-03-23T01:07:49;70.55;;;45.58;;
56116;SDS011;41989;45.356;20.392;2024-03-23T01:10:15;73.05;;;45.58;;
56116;SDS011;41989;45.356;20.392;2024-03-23T01:12:41;68.88;;;46.55;;
56116;SDS011;41989;45.356;20.392;2024-03-23T01:15:08;65.78;;;41.65;;
56116;SDS011;41989;45.356;20.392;2024-03-23T01:17:34;64.70;;;43.35;;
56116;SDS011;41989;45.356;20.392;2024-03-23T01:20:00;63.72;;;40.40;;
56116;SDS011;41989;45.356;20.392;2024-03-23T01:22:26;60.22;;;39.67;;
56116;SDS011;41989;45.356;20.392;2024-03-23T01:24:52;58.92;;;40.13;;
56116;SDS011;41989;45.356;20.392;2024-03-23T01:27:19;59.33;;;40.92;;
56116;SDS011;41989;45.356;20.392;2024-03-23T01:29:48;67.10;;;41.35;;
56116;SDS011;41989;45.356;20.392;2024-03-23T01:32:14;64.65;;;41.25;;
56116;SDS011;41989;45.356;20.392;2024-03-23T01:34:40;59.65;;;41.15;;
56116;SDS011;41989;45.356;20.392;2024-03-23T01:37:06;63.75;;;41.50;;
56116;SDS011;41989;45.356;20.392;2024-03-23T01:39:33;64.80;;;42.03;;
56116;SDS011;41989;45.356;20.392;2024-03-23T01:41:59;72.68;;;43.80;;
56116;SDS011;41989;45.356;20.392;2024-03-23T01:44:25;67.47;;;42.03;;
56116;SDS011;41989;45.356;20.392;2024-03-23T01:46:51;65.28;;;42.38;;
56116;SDS011;41989;45.356;20.392;2024-03-23T01:49:17;67.75;;;43.45;;
56116;SDS011;41989;45.356;20.392;2024-03-23T01:51:43;64.78;;;41.55;;
56116;SDS011;41989;45.356;20.392;2024-03-23T01:54:10;63.72;;;42.85;;
56116;SDS011;41989;45.356;20.392;2024-03-23T01:56:37;68.07;;;43.20;;
56116;SDS011;41989;45.356;20.392;2024-03-23T01:59:03;58.38;;;40.05;;
56116;SDS011;41989;45.356;20.392;2024-03-23T02:01:30;64.20;;;41.38;;
56116;SDS011;41989;45.356;20.392;2024-03-23T02:03:56;64.32;;;41.03;;
56116;SDS011;41989;45.356;20.392;2024-03-23T02:06:23;62.05;;;42.03;;
56116;SDS011;41989;45.356;20.392;2024-03-23T02:08:50;67.18;;;43.00;;
56116;SDS011;41989;45.356;20.392;2024-03-23T02:11:16;61.03;;;41.08;;
56116;SDS011;41989;45.356;20.392;2024-03-23T02:13:43;61.33;;;39.85;;
56116;SDS011;41989;45.356;20.392;2024-03-23T02:16:09;60.97;;;40.92;;
56116;SDS011;41989;45.356;20.392;2024-03-23T02:18:35;66.55;;;43.58;;
56116;SDS011;41989;45.356;20.392;2024-03-23T02:21:02;72.72;;;44.22;;
56116;SDS011;41989;45.356;20.392;2024-03-23T02:23:28;67.60;;;43.83;;
56116;SDS011;41989;45.356;20.392;2024-03-23T02:25:55;63.05;;;43.97;;
56116;SDS011;41989;45.356;20.392;2024-03-23T02:28:21;64.68;;;42.55;;
56116;SDS011;41989;45.356;20.392;2024-03-23T02:30:50;67.93;;;41.95;;
56116;SDS011;41989;45.356;20.392;2024-03-23T02:33:16;69.40;;;41.75;;
56116;SDS011;41989;45.356;20.392;2024-03-23T02:35:45;60.42;;;40.33;;
56116;SDS011;41989;45.356;20.392;2024-03-23T02:38:11;64.05;;;42.47;;
56116;SDS011;41989;45.356;20.392;2024-03-23T02:40:38;71.55;;;44.83;;
56116;SDS011;41989;45.356;20.392;2024-03-23T02:43:04;66.45;;;43.08;;
56116;SDS011;41989;45.356;20.392;2024-03-23T02:45:30;66.25;;;41.60;;
56116;SDS011;41989;45.356;20.392;2024-03-23T02:47:56;61.80;;;41.15;;
56116;SDS011;41989;45.356;20.392;2024-03-23T02:50:23;60.15;;;40.42;;
56116;SDS011;41989;45.356;20.392;2024-03-23T02:52:49;68.57;;;42.83;;
56116;SDS011;41989;45.356;20.392;2024-03-23T02:55:15;61.33;;;42.50;;
56116;SDS011;41989;45.356;20.392;2024-03-23T02:57:42;68.28;;;44.25;;
56116;SDS011;41989;45.356;20.392;2024-03-23T03:00:08;62.92;;;41.15;;
56116;SDS011;41989;45.356;20.392;2024-03-23T03:02:42;63.92;;;42.38;;
56116;SDS011;41989;45.356;20.392;2024-03-23T03:05:08;67.50;;;44.95;;
56116;SDS011;41989;45.356;20.392;2024-03-23T03:07:34;72.75;;;45.72;;
56116;SDS011;41989;45.356;20.392;2024-03-23T03:10:00;68.40;;;43.97;;
56116;SDS011;41989;45.356;20.392;2024-03-23T03:12:26;65.18;;;44.05;;
56116;SDS011;41989;45.356;20.392;2024-03-23T03:14:53;69.70;;;45.65;;
56116;SDS011;41989;45.356;20.392;2024-03-23T03:17:19;77.85;;;48.70;;
56116;SDS011;41989;45.356;20.392;2024-03-23T03:19:45;97.65;;;58.53;;
56116;SDS011;41989;45.356;20.392;2024-03-23T03:22:12;98.40;;;57.15;;
56116;SDS011;41989;45.356;20.392;2024-03-23T03:24:38;81.15;;;50.97;;
56116;SDS011;41989;45.356;20.392;2024-03-23T03:27:04;84.45;;;50.67;;
56116;SDS011;41989;45.356;20.392;2024-03-23T03:29:31;73.55;;;47.50;;
56116;SDS011;41989;45.356;20.392;2024-03-23T03:32:00;67.85;;;44.30;;
56116;SDS011;41989;45.356;20.392;2024-03-23T03:34:27;69.70;;;45.03;;
56116;SDS011;41989;45.356;20.392;2024-03-23T03:36:54;69.43;;;47.33;;
56116;SDS011;41989;45.356;20.392;2024-03-23T03:39:20;69.53;;;47.42;;
56116;SDS011;41989;45.356;20.392;2024-03-23T03:41:47;73.28;;;47.28;;
56116;SDS011;41989;45.356;20.392;2024-03-23T03:44:14;69.47;;;46.22;;
56116;SDS011;41989;45.356;20.392;2024-03-23T03:46:40;70.43;;;45.13;;
56116;SDS011;41989;45.356;20.392;2024-03-23T03:49:06;72.20;;;46.08;;
56116;SDS011;41989;45.356;20.392;2024-03-23T03:51:32;68.15;;;46.33;;
56116;SDS011;41989;45.356;20.392;2024-03-23T03:53:58;70.97;;;45.05;;
56116;SDS011;41989;45.356;20.392;2024-03-23T03:56:25;72.13;;;46.05;;
56116;SDS011;41989;45.356;20.392;2024-03-23T03:58:51;75.53;;;47.75;;
56116;SDS011;41989;45.356;20.392;2024-03-23T04:01:17;73.93;;;46.58;;
56116;SDS011;41989;45.356;20.392;2024-03-23T04:03:43;79.03;;;48.70;;
56116;SDS011;41989;45.356;20.392;2024-03-23T04:06:10;77.00;;;46.15;;
56116;SDS011;41989;45.356;20.392;2024-03-23T04:08:36;70.15;;;45.38;;
56116;SDS011;41989;45.356;20.392;2024-03-23T04:11:02;76.80;;;47.67;;
56116;SDS011;41989;45.356;20.392;2024-03-23T04:13:28;75.68;;;49.20;;
56116;SDS011;41989;45.356;20.392;2024-03-23T04:15:55;80.10;;;49.50;;
56116;SDS011;41989;45.356;20.392;2024-03-23T04:18:21;75.85;;;49.05;;
56116;SDS011;41989;45.356;20.392;2024-03-23T04:20:50;77.65;;;47.47;;
56116;SDS011;41989;45.356;20.392;2024-03-23T04:23:16;78.97;;;47.92;;
56116;SDS011;41989;45.356;20.392;2024-03-23T04:25:42;85.45;;;46.33;;
56116;SDS011;41989;45.356;20.392;2024-03-23T04:28:09;74.57;;;46.97;;
56116;SDS011;41989;45.356;20.392;2024-03-23T04:30:35;81.55;;;48.50;;
56116;SDS011;41989;45.356;20.392;2024-03-23T04:33:02;74.97;;;46.50;;
56116;SDS011;41989;45.356;20.392;2024-03-23T04:35:28;77.97;;;48.05;;
56116;SDS011;41989;45.356;20.392;2024-03-23T04:37:54;86.05;;;49.53;;
56116;SDS011;41989;45.356;20.392;2024-03-23T04:40:26;77.25;;;51.25;;
56116;SDS011;41989;45.356;20.392;2024-03-23T04:42:52;76.85;;;50.55;;
56116;SDS011;41989;45.356;20.392;2024-03-23T04:45:19;86.20;;;52.05;;
56116;SDS011;41989;45.356;20.392;2024-03-23T04:47:45;93.50;;;53.00;;
56116;SDS011;41989;45.356;20.392;2024-03-23T04:50:11;90.28;;;51.92;;
56116;SDS011;41989;45.356;20.392;2024-03-23T04:52:37;91.93;;;54.20;;
56116;SDS011;41989;45.356;20.392;2024-03-23T04:55:03;87.18;;;52.25;;
56116;SDS011;41989;45.356;20.392;2024-03-23T04:57:30;89.55;;;54.60;;
56116;SDS011;41989;45.356;20.392;2024-03-23T04:59:56;81.60;;;53.00;;
56116;SDS011;41989;45.356;20.392;2024-03-23T05:02:23;85.75;;;49.60;;
56116;SDS011;41989;45.356;20.392;2024-03-23T05:04:50;87.28;;;51.38;;
56116;SDS011;41989;45.356;20.392;2024-03-23T05:07:16;85.57;;;53.00;;
56116;SDS011;41989;45.356;20.392;2024-03-23T05:09:45;81.18;;;49.70;;
56116;SDS011;41989;45.356;20.392;2024-03-23T05:12:13;88.57;;;51.33;;
56116;SDS011;41989;45.356;20.392;2024-03-23T05:14:40;76.28;;;49.33;;
56116;SDS011;41989;45.356;20.392;2024-03-23T05:17:06;85.95;;;50.55;;
56116;SDS011;41989;45.356;20.392;2024-03-23T05:19:32;84.18;;;49.53;;
56116;SDS011;41989;45.356;20.392;2024-03-23T05:21:58;88.63;;;52.05;;
56116;SDS011;41989;45.356;20.392;2024-03-23T05:24:24;80.18;;;49.13;;
56116;SDS011;41989;45.356;20.392;2024-03-23T05:26:51;69.65;;;43.95;;
56116;SDS011;41989;45.356;20.392;2024-03-23T05:29:17;75.97;;;43.25;;
56116;SDS011;41989;45.356;20.392;2024-03-23T05:31:43;76.70;;;45.53;;
56116;SDS011;41989;45.356;20.392;2024-03-23T05:34:09;66.63;;;41.65;;
56116;SDS011;41989;45.356;20.392;2024-03-23T05:36:36;70.50;;;41.70;;
56116;SDS011;41989;45.356;20.392;2024-03-23T05:39:02;67.55;;;41.92;;
56116;SDS011;41989;45.356;20.392;2024-03-23T05:41:28;61.45;;;39.63;;
56116;SDS011;41989;45.356;20.392;2024-03-23T05:43:54;67.15;;;40.17;;
56116;SDS011;41989;45.356;20.392;2024-03-23T05:46:21;66.53;;;41.65;;
56116;SDS011;41989;45.356;20.392;2024-03-23T05:48:50;65.60;;;38.85;;
56116;SDS011;41989;45.356;20.392;2024-03-23T05:51:16;62.53;;;39.15;;
56116;SDS011;41989;45.356;20.392;2024-03-23T05:53:43;61.67;;;39.10;;
56116;SDS011;41989;45.356;20.392;2024-03-23T05:56:09;66.10;;;39.92;;
56116;SDS011;41989;45.356;20.392;2024-03-23T05:58:35;60.50;;;37.10;;
56116;SDS011;41989;45.356;20.392;2024-03-23T06:01:01;61.00;;;37.03;;
56116;SDS011;41989;45.356;20.392;2024-03-23T06:03:31;58.35;;;36.88;;
56116;SDS011;41989;45.356;20.392;2024-03-23T06:05:57;53.70;;;35.45;;
56116;SDS011;41989;45.356;20.392;2024-03-23T06:08:23;56.15;;;36.80;;
56116;SDS011;41989;45.356;20.392;2024-03-23T06:10:49;60.00;;;39.00;;
56116;SDS011;41989;45.356;20.392;2024-03-23T06:13:16;55.00;;;35.65;;
56116;SDS011;41989;45.356;20.392;2024-03-23T06:15:43;53.45;;;37.10;;
56116;SDS011;41989;45.356;20.392;2024-03-23T06:18:10;51.70;;;35.13;;
56116;SDS011;41989;45.356;20.392;2024-03-23T06:20:37;48.60;;;34.50;;
56116;SDS011;41989;45.356;20.392;2024-03-23T06:23:03;55.90;;;36.88;;
56116;SDS011;41989;45.356;20.392;2024-03-23T06:25:29;53.72;;;34.80;;
56116;SDS011;41989;45.356;20.392;2024-03-23T06:27:56;55.22;;;36.67;;
56116;SDS011;41989;45.356;20.392;2024-03-23T06:30:27;47.65;;;33.63;;
56116;SDS011;41989;45.356;20.392;2024-03-23T06:32:54;50.83;;;32.55;;
56116;SDS011;41989;45.356;20.392;2024-03-23T06:35:20;49.60;;;33.33;;
56116;SDS011;41989;45.356;20.392;2024-03-23T06:37:47;49.03;;;33.55;;
56116;SDS011;41989;45.356;20.392;2024-03-23T06:40:13;48.17;;;32.45;;
56116;SDS011;41989;45.356;20.392;2024-03-23T06:42:39;50.33;;;32.30;;
56116;SDS011;41989;45.356;20.392;2024-03-23T06:45:06;44.47;;;31.17;;
56116;SDS011;41989;45.356;20.392;2024-03-23T06:47:32;45.13;;;30.30;;
56116;SDS011;41989;45.356;20.392;2024-03-23T06:50:02;43.08;;;28.60;;
56116;SDS011;41989;45.356;20.392;2024-03-23T06:52:29;47.00;;;30.73;;
56116;SDS011;41989;45.356;20.392;2024-03-23T06:54:55;42.78;;;28.95;;
56116;SDS011;41989;45.356;20.392;2024-03-23T06:57:21;40.33;;;28.77;;
56116;SDS011;41989;45.356;20.392;2024-03-23T06:59:47;41.78;;;27.75;;
56116;SDS011;41989;45.356;20.392;2024-03-23T07:02:14;46.08;;;28.50;;
56116;SDS011;41989;45.356;20.392;2024-03-23T07:04:41;40.10;;;28.80;;
56116;SDS011;41989;45.356;20.392;2024-03-23T07:07:07;45.75;;;26.60;;
56116;SDS011;41989;45.356;20.392;2024-03-23T07:09:33;36.58;;;25.63;;
56116;SDS011;41989;45.356;20.392;2024-03-23T07:12:00;43.50;;;26.00;;
56116;SDS011;41989;45.356;20.392;2024-03-23T07:14:26;47.97;;;28.02;;
56116;SDS011;41989;45.356;20.392;2024-03-23T07:16:55;44.78;;;27.73;;
56116;SDS011;41989;45.356;20.392;2024-03-23T07:19:21;39.22;;;27.45;;
56116;SDS011;41989;45.356;20.392;2024-03-23T07:21:49;37.13;;;24.60;;
56116;SDS011;41989;45.356;20.392;2024-03-23T07:24:15;41.92;;;26.77;;
56116;SDS011;41989;45.356;20.392;2024-03-23T07:26:41;35.17;;;24.30;;
56116;SDS011;41989;45.356;20.392;2024-03-23T07:29:08;37.85;;;22.38;;
56116;SDS011;41989;45.356;20.392;2024-03-23T07:31:35;34.92;;;23.65;;
56116;SDS011;41989;45.356;20.392;2024-03-23T07:34:01;36.60;;;25.23;;
56116;SDS011;41989;45.356;20.392;2024-03-23T07:36:27;38.38;;;22.58;;
56116;SDS011;41989;45.356;20.392;2024-03-23T07:38:53;35.60;;;23.38;;
56116;SDS011;41989;45.356;20.392;2024-03-23T07:41:20;34.28;;;20.75;;
56116;SDS011;41989;45.356;20.392;2024-03-23T07:43:47;31.17;;;19.60;;
56116;SDS011;41989;45.356;20.392;2024-03-23T07:46:14;35.38;;;21.42;;
56116;SDS011;41989;45.356;20.392;2024-03-23T07:51:11;29.98;;;19.67;;
56116;SDS011;41989;45.356;20.392;2024-03-23T07:53:37;29.55;;;19.50;;
56116;SDS011;41989;45.356;20.392;2024-03-23T07:56:08;29.95;;;19.02;;
56116;SDS011;41989;45.356;20.392;2024-03-23T07:58:40;31.20;;;19.95;;
56116;SDS011;41989;45.356;20.392;2024-03-23T08:01:06;31.02;;;18.65;;
56116;SDS011;41989;45.356;20.392;2024-03-23T08:03:33;26.55;;;17.13;;
56116;SDS011;41989;45.356;20.392;2024-03-23T08:06:09;27.73;;;17.17;;
56116;SDS011;41989;45.356;20.392;2024-03-23T08:08:38;28.15;;;16.80;;
56116;SDS011;41989;45.356;20.392;2024-03-23T08:11:04;26.80;;;16.90;;
56116;SDS011;41989;45.356;20.392;2024-03-23T08:13:31;30.77;;;16.75;;
56116;SDS011;41989;45.356;20.392;2024-03-23T08:15:58;22.70;;;15.95;;
56116;SDS011;41989;45.356;20.392;2024-03-23T08:18:24;29.02;;;16.35;;
56116;SDS011;41989;45.356;20.392;2024-03-23T08:20:57;24.92;;;15.35;;
56116;SDS011;41989;45.356;20.392;2024-03-23T08:23:29;25.58;;;16.65;;
56116;SDS011;41989;45.356;20.392;2024-03-23T08:25:58;23.35;;;14.93;;
56116;SDS011;41989;45.356;20.392;2024-03-23T08:28:25;24.60;;;15.25;;
56116;SDS011;41989;45.356;20.392;2024-03-23T08:30:52;26.20;;;14.18;;
56116;SDS011;41989;45.356;20.392;2024-03-23T08:33:18;25.85;;;14.65;;
56116;SDS011;41989;45.356;20.392;2024-03-23T08:35:54;26.50;;;16.40;;
56116;SDS011;41989;45.356;20.392;2024-03-23T08:38:21;22.88;;;13.60;;
56116;SDS011;41989;45.356;20.392;2024-03-23T08:40:47;21.10;;;14.00;;
56116;SDS011;41989;45.356;20.392;2024-03-23T08:43:13;20.42;;;13.75;;
56116;SDS011;41989;45.356;20.392;2024-03-23T08:45:39;23.52;;;13.65;;
56116;SDS011;41989;45.356;20.392;2024-03-23T08:48:05;24.20;;;13.20;;
56116;SDS011;41989;45.356;20.392;2024-03-23T08:50:32;21.83;;;13.77;;
56116;SDS011;41989;45.356;20.392;2024-03-23T08:52:58;22.45;;;13.60;;
56116;SDS011;41989;45.356;20.392;2024-03-23T08:55:24;21.05;;;13.77;;
56116;SDS011;41989;45.356;20.392;2024-03-23T08:57:50;16.30;;;12.23;;
56116;SDS011;41989;45.356;20.392;2024-03-23T09:00:16;22.67;;;12.95;;
56116;SDS011;41989;45.356;20.392;2024-03-23T09:02:43;19.35;;;12.38;;
56116;SDS011;41989;45.356;20.392;2024-03-23T09:05:13;20.63;;;12.95;;
56116;SDS011;41989;45.356;20.392;2024-03-23T09:07:39;20.23;;;12.40;;
56116;SDS011;41989;45.356;20.392;2024-03-23T09:10:06;24.65;;;12.73;;
56116;SDS011;41989;45.356;20.392;2024-03-23T09:12:33;20.77;;;12.35;;
56116;SDS011;41989;45.356;20.392;2024-03-23T09:14:59;19.77;;;12.60;;
56116;SDS011;41989;45.356;20.392;2024-03-23T09:17:25;17.67;;;12.20;;
56116;SDS011;41989;45.356;20.392;2024-03-23T09:19:51;22.42;;;13.82;;
56116;SDS011;41989;45.356;20.392;2024-03-23T09:22:18;18.73;;;13.23;;
56116;SDS011;41989;45.356;20.392;2024-03-23T09:24:44;20.52;;;13.43;;
56116;SDS011;41989;45.356;20.392;2024-03-23T09:27:10;21.85;;;13.90;;
56116;SDS011;41989;45.356;20.392;2024-03-23T09:29:36;23.20;;;14.40;;
56116;SDS011;41989;45.356;20.392;2024-03-23T09:32:03;23.55;;;13.82;;
56116;SDS011;41989;45.356;20.392;2024-03-23T09:34:29;20.55;;;13.07;;
56116;SDS011;41989;45.356;20.392;2024-03-23T09:36:55;18.77;;;12.55;;
56116;SDS011;41989;45.356;20.392;2024-03-23T09:39:21;22.70;;;15.20;;
56116;SDS011;41989;45.356;20.392;2024-03-23T09:41:47;22.08;;;14.35;;
56116;SDS011;41989;45.356;20.392;2024-03-23T09:44:14;21.63;;;14.60;;
56116;SDS011;41989;45.356;20.392;2024-03-23T09:46:40;21.45;;;13.50;;
56116;SDS011;41989;45.356;20.392;2024-03-23T09:49:09;24.17;;;14.88;;
56116;SDS011;41989;45.356;20.392;2024-03-23T09:51:36;21.17;;;13.95;;
56116;SDS011;41989;45.356;20.392;2024-03-23T09:54:02;21.45;;;13.82;;
56116;SDS011;41989;45.356;20.392;2024-03-23T09:56:29;19.92;;;13.85;;
56116;SDS011;41989;45.356;20.392;2024-03-23T09:59:02;19.92;;;12.93;;
56116;SDS011;41989;45.356;20.392;2024-03-23T10:01:31;17.33;;;12.43;;
56116;SDS011;41989;45.356;20.392;2024-03-23T10:03:57;16.25;;;10.70;;
56116;SDS011;41989;45.356;20.392;2024-03-23T10:06:23;17.23;;;12.55;;
56116;SDS011;41989;45.356;20.392;2024-03-23T10:08:50;17.48;;;11.82;;
56116;SDS011;41989;45.356;20.392;2024-03-23T10:11:17;14.00;;;10.13;;
56116;SDS011;41989;45.356;20.392;2024-03-23T10:13:43;17.23;;;10.95;;
56116;SDS011;41989;45.356;20.392;2024-03-23T10:16:11;15.13;;;10.48;;
56116;SDS011;41989;45.356;20.392;2024-03-23T10:18:38;15.38;;;8.93;;
56116;SDS011;41989;45.356;20.392;2024-03-23T10:21:10;12.77;;;9.15;;
56116;SDS011;41989;45.356;20.392;2024-03-23T10:23:43;14.23;;;8.80;;
56116;SDS011;41989;45.356;20.392;2024-03-23T10:26:23;14.20;;;9.45;;
56116;SDS011;41989;45.356;20.392;2024-03-23T10:29:00;15.38;;;9.27;;
56116;SDS011;41989;45.356;20.392;2024-03-23T10:31:32;12.30;;;8.50;;
56116;SDS011;41989;45.356;20.392;2024-03-23T10:34:02;18.98;;;10.13;;
56116;SDS011;41989;45.356;20.392;2024-03-23T10:36:32;12.98;;;9.07;;
56116;SDS011;41989;45.356;20.392;2024-03-23T10:39:00;16.85;;;10.55;;
56116;SDS011;41989;45.356;20.392;2024-03-23T10:41:27;16.17;;;10.05;;
56116;SDS011;41989;45.356;20.392;2024-03-23T10:43:55;14.73;;;9.82;;
56116;SDS011;41989;45.356;20.392;2024-03-23T10:46:21;13.82;;;9.32;;
56116;SDS011;41989;45.356;20.392;2024-03-23T10:48:48;19.80;;;9.77;;
56116;SDS011;41989;45.356;20.392;2024-03-23T10:51:14;14.52;;;8.82;;
56116;SDS011;41989;45.356;20.392;2024-03-23T10:53:41;14.98;;;8.73;;
56116;SDS011;41989;45.356;20.392;2024-03-23T10:56:07;15.75;;;9.55;;
56116;SDS011;41989;45.356;20.392;2024-03-23T10:58:46;17.88;;;9.48;;
56116;SDS011;41989;45.356;20.392;2024-03-23T11:01:14;16.75;;;9.48;;
56116;SDS011;41989;45.356;20.392;2024-03-23T11:03:46;18.15;;;8.90;;
56116;SDS011;41989;45.356;20.392;2024-03-23T11:06:33;14.13;;;8.18;;
56116;SDS011;41989;45.356;20.392;2024-03-23T11:08:59;12.07;;;7.78;;
56116;SDS011;41989;45.356;20.392;2024-03-23T11:11:26;11.75;;;7.05;;
56116;SDS011;41989;45.356;20.392;2024-03-23T11:13:53;10.63;;;7.35;;
56116;SDS011;41989;45.356;20.392;2024-03-23T11:16:24;15.52;;;7.43;;
56116;SDS011;41989;45.356;20.392;2024-03-23T11:18:53;11.75;;;8.52;;
56116;SDS011;41989;45.356;20.392;2024-03-23T11:24:14;9.50;;;6.30;;
56116;SDS011;41989;45.356;20.392;2024-03-23T11:26:40;9.88;;;6.05;;
56116;SDS011;41989;45.356;20.392;2024-03-23T11:29:13;12.85;;;6.90;;
56116;SDS011;41989;45.356;20.392;2024-03-23T11:31:45;8.73;;;6.25;;
56116;SDS011;41989;45.356;20.392;2024-03-23T11:34:11;9.80;;;5.93;;
56116;SDS011;41989;45.356;20.392;2024-03-23T11:36:41;11.40;;;6.95;;
56116;SDS011;41989;45.356;20.392;2024-03-23T11:41:49;10.68;;;6.00;;
56116;SDS011;41989;45.356;20.392;2024-03-23T11:44:16;8.60;;;5.75;;
56116;SDS011;41989;45.356;20.392;2024-03-23T11:46:42;17.63;;;5.20;;
56116;SDS011;41989;45.356;20.392;2024-03-23T11:49:24;8.50;;;5.10;;
56116;SDS011;41989;45.356;20.392;2024-03-23T11:51:51;6.72;;;4.90;;
56116;SDS011;41989;45.356;20.392;2024-03-23T11:54:22;11.38;;;4.95;;
56116;SDS011;41989;45.356;20.392;2024-03-23T11:59:33;7.03;;;4.72;;
56116;SDS011;41989;45.356;20.392;2024-03-23T12:01:59;10.13;;;4.82;;
56116;SDS011;41989;45.356;20.392;2024-03-23T12:04:28;6.13;;;4.03;;
56116;SDS011;41989;45.356;20.392;2024-03-23T12:09:40;7.10;;;3.20;;
56116;SDS011;41989;45.356;20.392;2024-03-23T12:12:14;6.63;;;3.90;;
56116;SDS011;41989;45.356;20.392;2024-03-23T12:15:02;7.90;;;4.53;;
56116;SDS011;41989;45.356;20.392;2024-03-23T12:17:30;7.45;;;5.38;;
56116;SDS011;41989;45.356;20.392;2024-03-23T12:19:56;9.50;;;5.10;;
56116;SDS011;41989;45.356;20.392;2024-03-23T12:22:23;8.32;;;4.40;;
56116;SDS011;41989;45.356;20.392;2024-03-23T12:24:49;5.68;;;3.60;;
56116;SDS011;41989;45.356;20.392;2024-03-23T12:27:16;4.78;;;3.20;;
56116;SDS011;41989;45.356;20.392;2024-03-23T12:29:42;7.03;;;3.28;;
56116;SDS011;41989;45.356;20.392;2024-03-23T12:32:11;5.95;;;3.45;;
56116;SDS011;41989;45.356;20.392;2024-03-23T12:34:37;5.65;;;3.50;;
56116;SDS011;41989;45.356;20.392;2024-03-23T12:37:03;8.27;;;3.50;;
56116;SDS011;41989;45.356;20.392;2024-03-23T12:39:31;6.15;;;3.42;;
56116;SDS011;41989;45.356;20.392;2024-03-23T12:42:00;5.82;;;3.55;;
56116;SDS011;41989;45.356;20.392;2024-03-23T12:44:27;6.65;;;3.42;;
56116;SDS011;41989;45.356;20.392;2024-03-23T12:46:53;4.57;;;3.50;;
56116;SDS011;41989;45.356;20.392;2024-03-23T12:49:20;9.48;;;3.05;;
56116;SDS011;41989;45.356;20.392;2024-03-23T12:51:48;4.38;;;3.30;;
56116;SDS011;41989;45.356;20.392;2024-03-23T12:54:14;5.47;;;3.20;;
56116;SDS011;41989;45.356;20.392;2024-03-23T12:56:40;7.50;;;5.05;;
56116;SDS011;41989;45.356;20.392;2024-03-23T12:59:06;4.82;;;2.95;;
56116;SDS011;41989;45.356;20.392;2024-03-23T13:01:32;6.15;;;3.10;;
56116;SDS011;41989;45.356;20.392;2024-03-23T13:03:59;4.20;;;3.20;;
56116;SDS011;41989;45.356;20.392;2024-03-23T13:06:28;6.82;;;3.45;;
56116;SDS011;41989;45.356;20.392;2024-03-23T13:08:59;4.88;;;3.00;;
56116;SDS011;41989;45.356;20.392;2024-03-23T13:11:25;3.45;;;2.40;;
56116;SDS011;41989;45.356;20.392;2024-03-23T13:13:51;6.20;;;2.65;;
56116;SDS011;41989;45.356;20.392;2024-03-23T13:16:17;6.18;;;3.13;;
56116;SDS011;41989;45.356;20.392;2024-03-23T13:18:44;5.78;;;3.08;;
56116;SDS011;41989;45.356;20.392;2024-03-23T13:21:10;4.88;;;3.35;;
56116;SDS011;41989;45.356;20.392;2024-03-23T13:23:36;3.83;;;2.92;;
56116;SDS011;41989;45.356;20.392;2024-03-23T13:26:05;8.15;;;3.00;;
56116;SDS011;41989;45.356;20.392;2024-03-23T13:28:32;4.55;;;2.33;;
56116;SDS011;41989;45.356;20.392;2024-03-23T13:30:59;4.32;;;2.55;;
56116;SDS011;41989;45.356;20.392;2024-03-23T13:33:29;3.75;;;2.70;;
56116;SDS011;41989;45.356;20.392;2024-03-23T13:35:57;4.47;;;3.15;;
56116;SDS011;41989;45.356;20.392;2024-03-23T13:38:23;7.32;;;2.70;;
56116;SDS011;41989;45.356;20.392;2024-03-23T13:43:16;4.07;;;2.70;;
56116;SDS011;41989;45.356;20.392;2024-03-23T13:45:42;5.40;;;2.97;;
56116;SDS011;41989;45.356;20.392;2024-03-23T13:48:08;5.18;;;2.42;;
56116;SDS011;41989;45.356;20.392;2024-03-23T13:50:34;4.55;;;2.13;;
56116;SDS011;41989;45.356;20.392;2024-03-23T13:53:01;4.68;;;2.35;;
56116;SDS011;41989;45.356;20.392;2024-03-23T13:55:27;4.85;;;2.75;;
56116;SDS011;41989;45.356;20.392;2024-03-23T13:57:53;5.65;;;2.50;;
56116;SDS011;41989;45.356;20.392;2024-03-23T14:00:19;5.45;;;2.80;;
56116;SDS011;41989;45.356;20.392;2024-03-23T14:02:46;5.45;;;2.60;;
56116;SDS011;41989;45.356;20.392;2024-03-23T14:05:12;8.07;;;3.33;;
56116;SDS011;41989;45.356;20.392;2024-03-23T14:07:38;4.75;;;3.33;;
56116;SDS011;41989;45.356;20.392;2024-03-23T14:10:04;4.95;;;2.92;;
56116;SDS011;41989;45.356;20.392;2024-03-23T14:12:40;3.08;;;2.40;;
56116;SDS011;41989;45.356;20.392;2024-03-23T14:15:06;3.33;;;2.58;;
56116;SDS011;41989;45.356;20.392;2024-03-23T14:17:33;5.50;;;3.10;;
56116;SDS011;41989;45.356;20.392;2024-03-23T14:19:59;5.82;;;2.80;;
56116;SDS011;41989;45.356;20.392;2024-03-23T14:22:29;5.68;;;2.88;;
56116;SDS011;41989;45.356;20.392;2024-03-23T14:24:55;5.07;;;3.30;;
56116;SDS011;41989;45.356;20.392;2024-03-23T14:27:21;6.63;;;3.78;;
56116;SDS011;41989;45.356;20.392;2024-03-23T14:29:47;5.20;;;3.20;;
56116;SDS011;41989;45.356;20.392;2024-03-23T14:32:14;5.97;;;3.10;;
56116;SDS011;41989;45.356;20.392;2024-03-23T14:34:41;8.40;;;3.15;;
56116;SDS011;41989;45.356;20.392;2024-03-23T14:37:07;4.88;;;3.17;;
56116;SDS011;41989;45.356;20.392;2024-03-23T14:39:33;4.20;;;2.83;;
56116;SDS011;41989;45.356;20.392;2024-03-23T14:42:00;5.57;;;2.92;;
56116;SDS011;41989;45.356;20.392;2024-03-23T14:44:27;6.72;;;3.13;;
56116;SDS011;41989;45.356;20.392;2024-03-23T14:46:54;8.60;;;3.95;;
56116;SDS011;41989;45.356;20.392;2024-03-23T14:49:23;8.63;;;3.60;;
56116;SDS011;41989;45.356;20.392;2024-03-23T14:51:49;7.60;;;4.03;;
56116;SDS011;41989;45.356;20.392;2024-03-23T14:54:16;8.50;;;4.35;;
56116;SDS011;41989;45.356;20.392;2024-03-23T14:56:42;9.93;;;6.38;;
56116;SDS011;41989;45.356;20.392;2024-03-23T14:59:08;15.43;;;6.22;;
56116;SDS011;41989;45.356;20.392;2024-03-23T15:01:34;8.10;;;3.30;;
56116;SDS011;41989;45.356;20.392;2024-03-23T15:04:00;6.10;;;2.85;;
56116;SDS011;41989;45.356;20.392;2024-03-23T15:06:29;8.35;;;3.30;;
56116;SDS011;41989;45.356;20.392;2024-03-23T15:08:55;9.27;;;4.25;;
56116;SDS011;41989;45.356;20.392;2024-03-23T15:11:21;5.72;;;3.22;;
56116;SDS011;41989;45.356;20.392;2024-03-23T15:13:49;6.45;;;3.30;;
56116;SDS011;41989;45.356;20.392;2024-03-23T15:16:19;6.88;;;3.08;;
56116;SDS011;41989;45.356;20.392;2024-03-23T15:18:45;7.78;;;2.97;;
56116;SDS011;41989;45.356;20.392;2024-03-23T15:21:11;6.78;;;2.72;;
56116;SDS011;41989;45.356;20.392;2024-03-23T15:23:40;6.00;;;3.10;;